sensor_id;sensor_type;location;lat;lon;timestamp;pressure;altitude;pressure_sealevel;temperature;humidity
9335;BME280;4706;41.844;26.082;2023-01-29T00:01:12;101027.84;;;6.26;79.06
9335;BME280;4706;41.844;26.082;2023-01-29T00:03:39;101030.81;;;6.20;78.62
9335;BME280;4706;41.844;26.082;2023-01-29T00:06:07;101027.03;;;6.26;78.57
9335;BME280;4706;41.844;26.082;2023-01-29T00:08:34;101031.03;;;6.13;79.23
9335;BME280;4706;41.844;26.082;2023-01-29T00:11:01;101032.06;;;6.07;79.70
9335;BME280;4706;41.844;26.082;2023-01-29T00:13:27;101035.47;;;5.92;79.47
9335;BME280;4706;41.844;26.082;2023-01-29T00:15:56;101043.72;;;5.97;80.22
9335;BME280;4706;41.844;26.082;2023-01-29T00:18:22;101034.97;;;5.95;79.75
9335;BME280;4706;41.844;26.082;2023-01-29T00:20:48;101028.72;;;6.00;79.81
9335;BME280;4706;41.844;26.082;2023-01-29T00:23:14;101031.75;;;6.03;80.27
9335;BME280;4706;41.844;26.082;2023-01-29T00:25:41;101036.78;;;6.17;80.23
9335;BME280;4706;41.844;26.082;2023-01-29T00:28:07;101035.25;;;6.31;78.53
9335;BME280;4706;41.844;26.082;2023-01-29T00:30:33;101032.28;;;6.32;78.73
9335;BME280;4706;41.844;26.082;2023-01-29T00:32:58;101026.84;;;6.05;79.31
9335;BME280;4706;41.844;26.082;2023-01-29T00:35:24;101035.31;;;6.04;79.19
9335;BME280;4706;41.844;26.082;2023-01-29T00:37:49;101035.50;;;5.97;79.23
9335;BME280;4706;41.844;26.082;2023-01-29T00:40:15;101036.75;;;5.84;79.92
9335;BME280;4706;41.844;26.082;2023-01-29T00:42:43;101041.09;;;5.85;80.61
9335;BME280;4706;41.844;26.082;2023-01-29T00:45:27;101036.53;;;5.91;80.26
9335;BME280;4706;41.844;26.082;2023-01-29T00:47:53;101037.56;;;5.85;80.56
9335;BME280;4706;41.844;26.082;2023-01-29T00:50:18;101033.50;;;5.88;80.90
9335;BME280;4706;41.844;26.082;2023-01-29T00:52:44;101033.97;;;5.79;81.32
9335;BME280;4706;41.844;26.082;2023-01-29T00:55:10;101032.13;;;5.90;80.73
9335;BME280;4706;41.844;26.082;2023-01-29T00:57:37;101035.78;;;5.96;80.71
9335;BME280;4706;41.844;26.082;2023-01-29T01:00:05;101030.88;;;5.98;81.07
9335;BME280;4706;41.844;26.082;2023-01-29T01:02:31;101027.75;;;5.89;81.38
9335;BME280;4706;41.844;26.082;2023-01-29T01:05:16;101028.25;;;5.81;81.58
9335;BME280;4706;41.844;26.082;2023-01-29T01:07:44;101032.38;;;5.83;80.97
9335;BME280;4706;41.844;26.082;2023-01-29T01:10:20;101042.97;;;5.80;80.57
9335;BME280;4706;41.844;26.082;2023-01-29T01:13:07;101051.91;;;5.75;81.22
9335;BME280;4706;41.844;26.082;2023-01-29T01:15:37;101048.16;;;5.81;80.69
9335;BME280;4706;41.844;26.082;2023-01-29T01:18:03;101043.06;;;5.90;80.40
9335;BME280;4706;41.844;26.082;2023-01-29T01:20:31;101045.78;;;5.90;81.28
9335;BME280;4706;41.844;26.082;2023-01-29T01:22:57;101042.75;;;5.87;80.38
9335;BME280;4706;41.844;26.082;2023-01-29T01:25:24;101052.84;;;5.86;80.49
9335;BME280;4706;41.844;26.082;2023-01-29T01:27:53;101054.91;;;5.96;80.57
9335;BME280;4706;41.844;26.082;2023-01-29T01:30:19;101051.66;;;5.99;80.84
9335;BME280;4706;41.844;26.082;2023-01-29T01:32:45;101060.66;;;5.99;80.97
9335;BME280;4706;41.844;26.082;2023-01-29T01:35:10;101055.44;;;5.98;81.13
9335;BME280;4706;41.844;26.082;2023-01-29T01:37:36;101060.88;;;5.93;81.55
9335;BME280;4706;41.844;26.082;2023-01-29T01:40:13;101057.94;;;5.99;80.86
9335;BME280;4706;41.844;26.082;2023-01-29T01:42:43;101059.78;;;5.94;80.94
9335;BME280;4706;41.844;26.082;2023-01-29T01:45:31;101059.66;;;5.83;81.49
9335;BME280;4706;41.844;26.082;2023-01-29T01:48:20;101052.44;;;5.94;80.36
9335;BME280;4706;41.844;26.082;2023-01-29T01:50:51;101065.63;;;6.02;80.67
9335;BME280;4706;41.844;26.082;2023-01-29T01:53:40;101063.59;;;5.93;81.39
9335;BME280;4706;41.844;26.082;2023-01-29T01:56:11;101063.53;;;5.88;81.92
9335;BME280;4706;41.844;26.082;2023-01-29T01:58:45;101058.31;;;5.86;81.41
9335;BME280;4706;41.844;26.082;2023-01-29T02:01:12;101055.75;;;6.01;81.68
9335;BME280;4706;41.844;26.082;2023-01-29T02:03:53;101061.63;;;5.88;81.76
9335;BME280;4706;41.844;26.082;2023-01-29T02:06:39;101067.63;;;5.90;82.03
9335;BME280;4706;41.844;26.082;2023-01-29T02:09:28;101062.13;;;5.85;81.32
9335;BME280;4706;41.844;26.082;2023-01-29T02:12:00;101054.31;;;5.94;81.07
9335;BME280;4706;41.844;26.082;2023-01-29T02:14:26;101052.84;;;5.86;81.01
9335;BME280;4706;41.844;26.082;2023-01-29T02:16:51;101059.59;;;5.78;80.96
9335;BME280;4706;41.844;26.082;2023-01-29T02:32:43;101063.22;;;5.84;80.63
9335;BME280;4706;41.844;26.082;2023-01-29T02:35:31;101071.44;;;5.89;80.75
9335;BME280;4706;41.844;26.082;2023-01-29T02:40:36;101069.19;;;5.81;80.49
9335;BME280;4706;41.844;26.082;2023-01-29T02:43:36;101074.28;;;5.94;79.92
9335;BME280;4706;41.844;26.082;2023-01-29T02:51:17;101069.19;;;5.81;80.64
9335;BME280;4706;41.844;26.082;2023-01-29T02:53:55;101072.72;;;5.81;79.95
9335;BME280;4706;41.844;26.082;2023-01-29T02:56:33;101078.53;;;5.90;79.61
9335;BME280;4706;41.844;26.082;2023-01-29T02:59:07;101081.63;;;5.94;79.92
9335;BME280;4706;41.844;26.082;2023-01-29T03:01:39;101077.84;;;5.95;79.49
9335;BME280;4706;41.844;26.082;2023-01-29T03:04:10;101077.50;;;5.91;79.99
9335;BME280;4706;41.844;26.082;2023-01-29T03:06:39;101081.91;;;5.92;79.70
9335;BME280;4706;41.844;26.082;2023-01-29T03:09:13;101085.75;;;5.96;80.14
9335;BME280;4706;41.844;26.082;2023-01-29T03:11:44;101080.94;;;6.08;80.11
9335;BME280;4706;41.844;26.082;2023-01-29T03:14:40;101087.31;;;6.14;80.24
9335;BME280;4706;41.844;26.082;2023-01-29T03:17:26;101084.31;;;6.16;79.70
9335;BME280;4706;41.844;26.082;2023-01-29T03:19:58;101088.47;;;6.23;80.37
9335;BME280;4706;41.844;26.082;2023-01-29T03:22:25;101087.34;;;6.19;80.37
9335;BME280;4706;41.844;26.082;2023-01-29T03:24:57;101093.13;;;6.23;79.51
9335;BME280;4706;41.844;26.082;2023-01-29T03:27:45;101094.53;;;6.30;79.53
9335;BME280;4706;41.844;26.082;2023-01-29T03:30:35;101091.72;;;6.20;80.14
9335;BME280;4706;41.844;26.082;2023-01-29T03:33:23;101091.16;;;6.18;80.68
9335;BME280;4706;41.844;26.082;2023-01-29T03:35:57;101097.47;;;6.24;81.12
9335;BME280;4706;41.844;26.082;2023-01-29T03:38:25;101101.00;;;6.19;81.39
9335;BME280;4706;41.844;26.082;2023-01-29T03:43:40;101104.63;;;6.25;82.20
9335;BME280;4706;41.844;26.082;2023-01-29T03:51:54;101108.16;;;6.25;82.94
9335;BME280;4706;41.844;26.082;2023-01-29T03:54:27;101100.22;;;6.24;82.73
9335;BME280;4706;41.844;26.082;2023-01-29T03:57:23;101116.97;;;6.32;83.18
9335;BME280;4706;41.844;26.082;2023-01-29T04:00:00;101116.00;;;6.44;82.74
9335;BME280;4706;41.844;26.082;2023-01-29T04:03:00;101128.03;;;6.48;82.82
9335;BME280;4706;41.844;26.082;2023-01-29T04:05:24;101138.22;;;6.57;83.30
9335;BME280;4706;41.844;26.082;2023-01-29T04:08:03;101138.50;;;6.56;83.23
9335;BME280;4706;41.844;26.082;2023-01-29T04:10:33;101140.41;;;6.55;83.49
9335;BME280;4706;41.844;26.082;2023-01-29T04:13:04;101141.75;;;6.53;84.06
9335;BME280;4706;41.844;26.082;2023-01-29T04:15:35;101137.72;;;6.61;84.00
9335;BME280;4706;41.844;26.082;2023-01-29T04:18:03;101141.72;;;6.48;84.06
9335;BME280;4706;41.844;26.082;2023-01-29T04:20:28;101150.38;;;6.40;84.16
9335;BME280;4706;41.844;26.082;2023-01-29T04:22:54;101146.97;;;6.27;84.10
9335;BME280;4706;41.844;26.082;2023-01-29T04:25:26;101157.66;;;6.29;84.22
9335;BME280;4706;41.844;26.082;2023-01-29T04:28:09;101154.34;;;6.27;83.84
9335;BME280;4706;41.844;26.082;2023-01-29T04:30:59;101159.19;;;6.20;84.69
9335;BME280;4706;41.844;26.082;2023-01-29T04:33:49;101158.63;;;6.18;84.11
9335;BME280;4706;41.844;26.082;2023-01-29T04:39:11;101164.88;;;6.13;83.80
9335;BME280;4706;41.844;26.082;2023-01-29T04:44:43;101160.97;;;6.09;83.43
9335;BME280;4706;41.844;26.082;2023-01-29T04:49:55;101151.00;;;5.98;83.29
9335;BME280;4706;41.844;26.082;2023-01-29T04:55:05;101170.41;;;5.96;84.47
9335;BME280;4706;41.844;26.082;2023-01-29T04:57:42;101177.81;;;6.01;83.69
9335;BME280;4706;41.844;26.082;2023-01-29T05:00:23;101181.31;;;5.96;84.03
9335;BME280;4706;41.844;26.082;2023-01-29T05:02:52;101171.47;;;5.95;84.47
9335;BME280;4706;41.844;26.082;2023-01-29T05:05:18;101185.81;;;6.07;84.73
9335;BME280;4706;41.844;26.082;2023-01-29T05:07:45;101186.00;;;6.01;85.02
9335;BME280;4706;41.844;26.082;2023-01-29T05:10:13;101197.50;;;6.03;84.96
9335;BME280;4706;41.844;26.082;2023-01-29T05:12:42;101197.75;;;6.01;84.77
9335;BME280;4706;41.844;26.082;2023-01-29T05:15:16;101201.84;;;5.99;84.70
9335;BME280;4706;41.844;26.082;2023-01-29T05:17:44;101198.28;;;5.98;85.02
9335;BME280;4706;41.844;26.082;2023-01-29T05:20:11;101188.59;;;5.91;85.48
9335;BME280;4706;41.844;26.082;2023-01-29T05:22:38;101205.00;;;5.91;86.00
9335;BME280;4706;41.844;26.082;2023-01-29T05:25:29;101207.72;;;5.91;86.25
9335;BME280;4706;41.844;26.082;2023-01-29T05:27:55;101207.22;;;5.94;85.56
9335;BME280;4706;41.844;26.082;2023-01-29T05:30:41;101211.50;;;5.90;86.77
9335;BME280;4706;41.844;26.082;2023-01-29T05:33:20;101214.72;;;5.87;86.29
9335;BME280;4706;41.844;26.082;2023-01-29T05:35:47;101224.00;;;5.85;86.54
9335;BME280;4706;41.844;26.082;2023-01-29T05:38:14;101215.81;;;5.85;86.50
9335;BME280;4706;41.844;26.082;2023-01-29T05:40:40;101225.97;;;6.07;86.28
9335;BME280;4706;41.844;26.082;2023-01-29T05:43:13;101232.94;;;5.98;85.51
9335;BME280;4706;41.844;26.082;2023-01-29T05:45:39;101239.91;;;5.89;85.93
9335;BME280;4706;41.844;26.082;2023-01-29T05:48:04;101231.50;;;5.73;85.76
9335;BME280;4706;41.844;26.082;2023-01-29T05:50:30;101245.31;;;5.67;86.36
9335;BME280;4706;41.844;26.082;2023-01-29T05:53:00;101241.28;;;5.52;86.87
9335;BME280;4706;41.844;26.082;2023-01-29T05:55:27;101251.00;;;5.43;87.63
9335;BME280;4706;41.844;26.082;2023-01-29T05:57:54;101239.44;;;5.36;87.50
9335;BME280;4706;41.844;26.082;2023-01-29T06:00:20;101260.50;;;5.41;87.91
9335;BME280;4706;41.844;26.082;2023-01-29T06:02:45;101253.66;;;5.38;87.88
9335;BME280;4706;41.844;26.082;2023-01-29T06:05:11;101261.84;;;5.38;88.54
9335;BME280;4706;41.844;26.082;2023-01-29T06:07:36;101263.31;;;5.46;88.63
9335;BME280;4706;41.844;26.082;2023-01-29T06:10:04;101264.69;;;5.48;87.23
9335;BME280;4706;41.844;26.082;2023-01-29T06:12:30;101267.34;;;5.26;88.85
9335;BME280;4706;41.844;26.082;2023-01-29T06:14:55;101271.56;;;5.34;88.31
9335;BME280;4706;41.844;26.082;2023-01-29T06:17:21;101274.56;;;5.32;88.42
9335;BME280;4706;41.844;26.082;2023-01-29T06:19:46;101276.63;;;5.25;87.23
9335;BME280;4706;41.844;26.082;2023-01-29T06:22:12;101275.94;;;5.18;88.79
9335;BME280;4706;41.844;26.082;2023-01-29T06:24:37;101287.31;;;5.27;87.34
9335;BME280;4706;41.844;26.082;2023-01-29T06:27:03;101287.69;;;5.19;88.06
9335;BME280;4706;41.844;26.082;2023-01-29T06:29:28;101279.34;;;5.25;87.02
9335;BME280;4706;41.844;26.082;2023-01-29T06:31:53;101289.50;;;5.30;86.67
9335;BME280;4706;41.844;26.082;2023-01-29T06:34:19;101288.34;;;5.26;86.40
9335;BME280;4706;41.844;26.082;2023-01-29T06:36:45;101290.94;;;5.16;87.20
9335;BME280;4706;41.844;26.082;2023-01-29T06:39:10;101295.88;;;5.02;87.96
9335;BME280;4706;41.844;26.082;2023-01-29T06:41:36;101303.72;;;4.98;88.68
9335;BME280;4706;41.844;26.082;2023-01-29T06:44:02;101298.50;;;4.97;89.28
9335;BME280;4706;41.844;26.082;2023-01-29T06:46:27;101300.72;;;5.00;89.37
9335;BME280;4706;41.844;26.082;2023-01-29T06:48:53;101295.94;;;5.07;89.53
9335;BME280;4706;41.844;26.082;2023-01-29T06:51:18;101302.06;;;5.14;89.78
9335;BME280;4706;41.844;26.082;2023-01-29T06:53:45;101299.25;;;5.09;89.63
9335;BME280;4706;41.844;26.082;2023-01-29T06:56:11;101302.97;;;5.03;90.13
9335;BME280;4706;41.844;26.082;2023-01-29T06:58:36;101315.13;;;5.12;90.21
9335;BME280;4706;41.844;26.082;2023-01-29T07:01:04;101305.06;;;5.13;90.50
9335;BME280;4706;41.844;26.082;2023-01-29T07:03:29;101313.81;;;5.15;90.39
9335;BME280;4706;41.844;26.082;2023-01-29T07:05:55;101312.97;;;5.14;90.66
9335;BME280;4706;41.844;26.082;2023-01-29T07:08:20;101316.63;;;5.20;89.32
9335;BME280;4706;41.844;26.082;2023-01-29T07:10:47;101316.78;;;5.13;89.52
9335;BME280;4706;41.844;26.082;2023-01-29T07:13:13;101322.66;;;5.05;89.73
9335;BME280;4706;41.844;26.082;2023-01-29T07:15:39;101312.22;;;5.02;89.22
9335;BME280;4706;41.844;26.082;2023-01-29T07:18:04;101298.88;;;4.88;89.82
9335;BME280;4706;41.844;26.082;2023-01-29T07:20:38;101322.78;;;4.98;90.85
9335;BME280;4706;41.844;26.082;2023-01-29T07:23:03;101321.47;;;5.01;90.52
9335;BME280;4706;41.844;26.082;2023-01-29T07:25:29;101319.31;;;4.86;89.74
9335;BME280;4706;41.844;26.082;2023-01-29T07:27:55;101320.94;;;4.87;90.11
9335;BME280;4706;41.844;26.082;2023-01-29T07:30:21;101327.31;;;4.93;90.91
9335;BME280;4706;41.844;26.082;2023-01-29T07:32:46;101320.34;;;4.85;91.05
9335;BME280;4706;41.844;26.082;2023-01-29T07:35:12;101327.91;;;4.95;89.29
9335;BME280;4706;41.844;26.082;2023-01-29T07:37:38;101331.06;;;5.03;89.77
9335;BME280;4706;41.844;26.082;2023-01-29T07:40:04;101324.75;;;4.86;91.09
9335;BME280;4706;41.844;26.082;2023-01-29T07:42:34;101330.59;;;4.78;92.28
9335;BME280;4706;41.844;26.082;2023-01-29T07:45:00;101333.41;;;5.11;88.60
9335;BME280;4706;41.844;26.082;2023-01-29T07:47:26;101339.91;;;5.10;87.95
9335;BME280;4706;41.844;26.082;2023-01-29T07:49:51;101345.38;;;5.10;86.08
9335;BME280;4706;41.844;26.082;2023-01-29T07:52:17;101337.19;;;5.10;86.27
9335;BME280;4706;41.844;26.082;2023-01-29T07:54:43;101339.81;;;5.05;86.37
9335;BME280;4706;41.844;26.082;2023-01-29T07:57:08;101337.19;;;5.10;86.20
9335;BME280;4706;41.844;26.082;2023-01-29T07:59:34;101346.38;;;5.04;84.74
9335;BME280;4706;41.844;26.082;2023-01-29T08:01:59;101347.84;;;5.12;85.80
9335;BME280;4706;41.844;26.082;2023-01-29T08:04:25;101348.56;;;5.07;85.04
9335;BME280;4706;41.844;26.082;2023-01-29T08:06:50;101345.44;;;4.99;85.89
9335;BME280;4706;41.844;26.082;2023-01-29T08:09:16;101351.63;;;4.94;87.21
9335;BME280;4706;41.844;26.082;2023-01-29T08:11:41;101355.66;;;4.92;87.93
9335;BME280;4706;41.844;26.082;2023-01-29T08:14:07;101352.00;;;4.86;88.25
9335;BME280;4706;41.844;26.082;2023-01-29T08:16:34;101354.75;;;4.86;89.78
9335;BME280;4706;41.844;26.082;2023-01-29T08:19:01;101357.63;;;4.96;89.11
9335;BME280;4706;41.844;26.082;2023-01-29T08:21:26;101357.25;;;5.04;88.93
9335;BME280;4706;41.844;26.082;2023-01-29T08:23:52;101361.72;;;5.10;87.45
9335;BME280;4706;41.844;26.082;2023-01-29T08:26:17;101357.69;;;5.13;87.89
9335;BME280;4706;41.844;26.082;2023-01-29T08:28:43;101369.06;;;5.10;87.65
9335;BME280;4706;41.844;26.082;2023-01-29T08:31:16;101361.31;;;5.02;87.69
9335;BME280;4706;41.844;26.082;2023-01-29T08:33:41;101365.09;;;5.01;88.47
9335;BME280;4706;41.844;26.082;2023-01-29T08:36:07;101360.69;;;5.00;87.81
9335;BME280;4706;41.844;26.082;2023-01-29T08:38:33;101360.63;;;4.95;88.15
9335;BME280;4706;41.844;26.082;2023-01-29T08:40:59;101353.75;;;4.92;87.53
9335;BME280;4706;41.844;26.082;2023-01-29T08:43:24;101352.59;;;4.88;88.13
9335;BME280;4706;41.844;26.082;2023-01-29T08:45:50;101363.69;;;4.98;89.08
9335;BME280;4706;41.844;26.082;2023-01-29T08:48:17;101361.56;;;5.00;88.97
9335;BME280;4706;41.844;26.082;2023-01-29T08:50:42;101348.97;;;4.99;87.20
9335;BME280;4706;41.844;26.082;2023-01-29T08:53:08;101358.09;;;5.22;87.06
9335;BME280;4706;41.844;26.082;2023-01-29T08:55:38;101356.78;;;5.24;87.36
9335;BME280;4706;41.844;26.082;2023-01-29T08:58:05;101360.91;;;5.10;87.02
9335;BME280;4706;41.844;26.082;2023-01-29T09:00:31;101369.59;;;5.24;88.53
9335;BME280;4706;41.844;26.082;2023-01-29T09:02:57;101368.38;;;5.31;87.01
9335;BME280;4706;41.844;26.082;2023-01-29T09:05:24;101366.13;;;5.28;86.05
9335;BME280;4706;41.844;26.082;2023-01-29T09:07:50;101365.41;;;5.33;87.58
9335;BME280;4706;41.844;26.082;2023-01-29T09:10:15;101351.34;;;5.41;85.96
9335;BME280;4706;41.844;26.082;2023-01-29T09:12:41;101364.75;;;5.43;86.52
9335;BME280;4706;41.844;26.082;2023-01-29T09:15:07;101366.72;;;5.47;85.94
9335;BME280;4706;41.844;26.082;2023-01-29T09:17:33;101369.81;;;5.51;84.90
9335;BME280;4706;41.844;26.082;2023-01-29T09:19:58;101353.91;;;5.48;84.61
9335;BME280;4706;41.844;26.082;2023-01-29T09:22:24;101362.09;;;5.48;84.34
9335;BME280;4706;41.844;26.082;2023-01-29T09:24:49;101370.13;;;5.54;85.38
9335;BME280;4706;41.844;26.082;2023-01-29T09:27:15;101361.94;;;5.54;84.57
9335;BME280;4706;41.844;26.082;2023-01-29T09:29:41;101352.19;;;5.42;84.85
9335;BME280;4706;41.844;26.082;2023-01-29T09:32:07;101354.66;;;5.60;85.40
9335;BME280;4706;41.844;26.082;2023-01-29T09:34:33;101350.88;;;5.61;84.06
9335;BME280;4706;41.844;26.082;2023-01-29T09:36:59;101353.25;;;5.74;83.06
9335;BME280;4706;41.844;26.082;2023-01-29T09:39:24;101339.88;;;5.73;82.48
9335;BME280;4706;41.844;26.082;2023-01-29T09:42:05;101350.13;;;5.66;82.15
9335;BME280;4706;41.844;26.082;2023-01-29T09:47:30;101348.06;;;5.73;82.53
9335;BME280;4706;41.844;26.082;2023-01-29T09:50:02;101347.78;;;5.74;82.75
9335;BME280;4706;41.844;26.082;2023-01-29T09:52:40;101333.16;;;5.80;82.07
9335;BME280;4706;41.844;26.082;2023-01-29T09:55:25;101337.09;;;6.06;82.02
9335;BME280;4706;41.844;26.082;2023-01-29T09:57:59;101332.78;;;6.11;80.55
9335;BME280;4706;41.844;26.082;2023-01-29T10:10:56;101329.41;;;6.03;79.17
9335;BME280;4706;41.844;26.082;2023-01-29T10:16:45;101319.84;;;6.23;77.06
9335;BME280;4706;41.844;26.082;2023-01-29T10:22:32;101316.78;;;6.19;78.17
9335;BME280;4706;41.844;26.082;2023-01-29T10:25:03;101313.84;;;6.04;77.84
9335;BME280;4706;41.844;26.082;2023-01-29T10:27:32;101317.56;;;5.98;78.44
9335;BME280;4706;41.844;26.082;2023-01-29T10:29:59;101316.41;;;6.11;78.20
9335;BME280;4706;41.844;26.082;2023-01-29T10:32:28;101290.78;;;6.17;76.53
9335;BME280;4706;41.844;26.082;2023-01-29T10:34:58;101305.59;;;6.43;76.11
9335;BME280;4706;41.844;26.082;2023-01-29T10:37:40;101306.44;;;6.43;76.29
9335;BME280;4706;41.844;26.082;2023-01-29T10:40:24;101304.00;;;6.47;77.04
9335;BME280;4706;41.844;26.082;2023-01-29T10:59:39;101269.19;;;6.86;76.08
9335;BME280;4706;41.844;26.082;2023-01-29T11:02:17;101268.97;;;6.93;75.60
9335;BME280;4706;41.844;26.082;2023-01-29T11:04:45;101259.84;;;7.14;75.97
9335;BME280;4706;41.844;26.082;2023-01-29T11:07:11;101250.25;;;7.12;77.88
9335;BME280;4706;41.844;26.082;2023-01-29T11:12:27;101252.03;;;7.28;77.34
9335;BME280;4706;41.844;26.082;2023-01-29T11:15:28;101244.72;;;7.39;75.71
9335;BME280;4706;41.844;26.082;2023-01-29T11:20:29;101241.75;;;7.45;75.33
9335;BME280;4706;41.844;26.082;2023-01-29T11:22:55;101237.06;;;7.41;74.98
9335;BME280;4706;41.844;26.082;2023-01-29T11:25:22;101237.41;;;7.49;74.64
9335;BME280;4706;41.844;26.082;2023-01-29T11:27:52;101237.84;;;7.36;74.21
9335;BME280;4706;41.844;26.082;2023-01-29T11:30:25;101235.69;;;7.38;74.54
9335;BME280;4706;41.844;26.082;2023-01-29T11:33:05;101231.56;;;7.41;74.38
9335;BME280;4706;41.844;26.082;2023-01-29T11:35:34;101228.41;;;7.59;74.03
9335;BME280;4706;41.844;26.082;2023-01-29T11:38:08;101231.44;;;7.58;75.38
9335;BME280;4706;41.844;26.082;2023-01-29T11:40:41;101227.88;;;7.57;76.27
9335;BME280;4706;41.844;26.082;2023-01-29T11:43:15;101226.47;;;7.49;75.34
9335;BME280;4706;41.844;26.082;2023-01-29T11:45:42;101222.56;;;7.40;74.58
9335;BME280;4706;41.844;26.082;2023-01-29T11:48:16;101219.22;;;7.33;73.26
9335;BME280;4706;41.844;26.082;2023-01-29T11:50:50;101224.16;;;7.36;73.43
9335;BME280;4706;41.844;26.082;2023-01-29T11:53:31;101211.50;;;7.25;75.00
9335;BME280;4706;41.844;26.082;2023-01-29T11:55:58;101220.63;;;7.41;75.51
9335;BME280;4706;41.844;26.082;2023-01-29T12:00:50;101218.25;;;7.54;76.17
9335;BME280;4706;41.844;26.082;2023-01-29T12:06:01;101217.44;;;7.54;76.24
9335;BME280;4706;41.844;26.082;2023-01-29T12:08:34;101213.38;;;7.62;75.96
9335;BME280;4706;41.844;26.082;2023-01-29T12:13:33;101206.50;;;7.59;76.91
9335;BME280;4706;41.844;26.082;2023-01-29T12:18:53;101210.06;;;7.60;76.82
9335;BME280;4706;41.844;26.082;2023-01-29T12:21:32;101207.31;;;7.54;77.59
9335;BME280;4706;41.844;26.082;2023-01-29T12:26:46;101211.16;;;7.59;77.53
9335;BME280;4706;41.844;26.082;2023-01-29T12:32:47;101207.69;;;7.68;77.57
9335;BME280;4706;41.844;26.082;2023-01-29T12:38:19;101211.22;;;7.69;77.66
9335;BME280;4706;41.844;26.082;2023-01-29T12:40:55;101191.19;;;7.58;77.31
9335;BME280;4706;41.844;26.082;2023-01-29T12:43:45;101214.50;;;7.66;77.51
9335;BME280;4706;41.844;26.082;2023-01-29T12:46:28;101206.25;;;7.61;77.66
9335;BME280;4706;41.844;26.082;2023-01-29T12:49:00;101212.63;;;7.71;77.15
9335;BME280;4706;41.844;26.082;2023-01-29T12:51:36;101215.94;;;7.78;77.55
9335;BME280;4706;41.844;26.082;2023-01-29T12:54:10;101209.59;;;7.73;77.73
9335;BME280;4706;41.844;26.082;2023-01-29T12:56:40;101213.38;;;7.62;78.06
9335;BME280;4706;41.844;26.082;2023-01-29T12:59:20;101212.06;;;7.69;78.15
9335;BME280;4706;41.844;26.082;2023-01-29T13:01:58;101208.56;;;7.79;79.75
9335;BME280;4706;41.844;26.082;2023-01-29T13:04:35;101201.41;;;7.78;79.67
9335;BME280;4706;41.844;26.082;2023-01-29T13:09:38;101212.72;;;7.92;79.41
9335;BME280;4706;41.844;26.082;2023-01-29T13:12:13;101202.31;;;7.94;79.43
9335;BME280;4706;41.844;26.082;2023-01-29T13:17:25;101199.28;;;7.90;78.48
9335;BME280;4706;41.844;26.082;2023-01-29T13:19:57;101208.00;;;7.82;78.11
9335;BME280;4706;41.844;26.082;2023-01-29T13:22:26;101202.28;;;7.84;77.61
9335;BME280;4706;41.844;26.082;2023-01-29T13:24:52;101200.34;;;7.84;77.83
9335;BME280;4706;41.844;26.082;2023-01-29T13:27:25;101208.34;;;7.91;78.04
9335;BME280;4706;41.844;26.082;2023-01-29T13:29:52;101209.69;;;7.93;78.72
9335;BME280;4706;41.844;26.082;2023-01-29T13:32:25;101209.44;;;7.95;78.96
9335;BME280;4706;41.844;26.082;2023-01-29T13:34:54;101208.28;;;7.86;79.07
9335;BME280;4706;41.844;26.082;2023-01-29T13:37:39;101208.88;;;7.93;79.14
9335;BME280;4706;41.844;26.082;2023-01-29T13:40:07;101213.81;;;7.96;79.98
9335;BME280;4706;41.844;26.082;2023-01-29T13:42:44;101203.66;;;7.91;78.82
9335;BME280;4706;41.844;26.082;2023-01-29T13:45:24;101210.78;;;7.92;78.57
9335;BME280;4706;41.844;26.082;2023-01-29T13:47:52;101209.19;;;8.01;78.53
9335;BME280;4706;41.844;26.082;2023-01-29T13:50:25;101209.44;;;7.95;78.21
9335;BME280;4706;41.844;26.082;2023-01-29T13:52:56;101224.50;;;7.92;78.09
9335;BME280;4706;41.844;26.082;2023-01-29T13:55:35;101213.81;;;7.91;79.35
9335;BME280;4706;41.844;26.082;2023-01-29T13:58:06;101220.34;;;7.90;79.05
9335;BME280;4706;41.844;26.082;2023-01-29T14:10:31;101232.84;;;7.65;79.70
9335;BME280;4706;41.844;26.082;2023-01-29T14:15:31;101215.28;;;7.56;80.53
9335;BME280;4706;41.844;26.082;2023-01-29T14:18:16;101207.91;;;7.67;80.71
9335;BME280;4706;41.844;26.082;2023-01-29T14:20:57;101222.47;;;7.67;80.85
9335;BME280;4706;41.844;26.082;2023-01-29T14:23:37;101220.53;;;7.68;80.94
9335;BME280;4706;41.844;26.082;2023-01-29T14:26:23;101224.34;;;7.62;80.85
9335;BME280;4706;41.844;26.082;2023-01-29T14:34:01;101226.69;;;7.43;81.47
9335;BME280;4706;41.844;26.082;2023-01-29T14:36:27;101239.25;;;7.39;81.68
9335;BME280;4706;41.844;26.082;2023-01-29T14:38:53;101227.47;;;7.38;81.17
9335;BME280;4706;41.844;26.082;2023-01-29T14:41:32;101243.69;;;7.45;81.29
9335;BME280;4706;41.844;26.082;2023-01-29T14:47:02;101237.66;;;7.48;80.50
9335;BME280;4706;41.844;26.082;2023-01-29T14:49:51;101241.19;;;7.43;80.37
9335;BME280;4706;41.844;26.082;2023-01-29T14:52:21;101242.53;;;7.41;80.47
9335;BME280;4706;41.844;26.082;2023-01-29T14:54:51;101240.06;;;7.39;80.64
9335;BME280;4706;41.844;26.082;2023-01-29T14:57:18;101239.53;;;7.37;80.40
9335;BME280;4706;41.844;26.082;2023-01-29T15:00:17;101238.63;;;7.32;80.93
9335;BME280;4706;41.844;26.082;2023-01-29T15:02:48;101241.06;;;7.23;80.56
9335;BME280;4706;41.844;26.082;2023-01-29T15:05:18;101239.69;;;7.25;80.97
9335;BME280;4706;41.844;26.082;2023-01-29T15:07:54;101240.25;;;7.27;81.36
9335;BME280;4706;41.844;26.082;2023-01-29T15:12:59;101245.25;;;7.41;81.84
9335;BME280;4706;41.844;26.082;2023-01-29T15:18:41;101253.44;;;7.36;81.74
9335;BME280;4706;41.844;26.082;2023-01-29T15:21:12;101252.28;;;7.26;82.60
9335;BME280;4706;41.844;26.082;2023-01-29T15:23:41;101249.25;;;7.23;81.89
9335;BME280;4706;41.844;26.082;2023-01-29T15:26:10;101258.91;;;7.36;81.63
9335;BME280;4706;41.844;26.082;2023-01-29T15:28:37;101260.81;;;7.30;82.14
9335;BME280;4706;41.844;26.082;2023-01-29T15:31:06;101266.00;;;7.32;82.29
9335;BME280;4706;41.844;26.082;2023-01-29T15:33:36;101263.25;;;7.26;82.73
9335;BME280;4706;41.844;26.082;2023-01-29T15:36:03;101252.50;;;7.20;82.54
9335;BME280;4706;41.844;26.082;2023-01-29T15:38:29;101262.97;;;7.28;83.25
9335;BME280;4706;41.844;26.082;2023-01-29T15:41:03;101264.59;;;7.29;82.86
9335;BME280;4706;41.844;26.082;2023-01-29T15:43:42;101263.56;;;7.35;83.23